Wawasan Ruby — 3EVU7 — position and weather

sailwx.info

Track history (hours):
 
Tides and Currents Weather Stations Pressure Air Temp Water Temp Dewpoint Dewpoint Depression Visibility Wind Speed Wind Dir Waves Ship Positions

Wawasan Ruby

Last reported at 2016-May-26 03:12 UTC. Time now 2016-May-26 04:41 UTC.
Position N 22°08' E 113°47'.

Length 146 m; draft 9.7 m.

Type: Tanker. MMSI: 355619000.

Date/timePositionNaut miles runAvg speedWind from/ knotsBaromVisibWave heightAir tempDewpointWater temp
2016-May-26 03:12N 22°08' E 113°47'0 0.2
2016-May-26 02:30N 22°08' E 113°47'0 0.0
2016-May-26 01:24N 22°08' E 113°47'0 0.0
2016-May-26 00:30N 22°08' E 113°47'0 0.0
2016-May-25 23:24N 22°08' E 113°47'0 0.1
2016-May-25 22:30N 22°07' E 113°47'0 0.0
2016-May-25 21:30N 22°07' E 113°47'0 0.0
2016-May-25 20:30N 22°07' E 113°47'0 0.0
2016-May-25 19:30N 22°07' E 113°47'0 0.0
2016-May-25 18:18N 22°08' E 113°47'0 0.0
2016-May-25 17:30N 22°08' E 113°47'0 0.0
2016-May-25 16:30N 22°08' E 113°47'0 0.0
2016-May-25 15:30N 22°08' E 113°47'0 0.1
2016-May-25 14:30N 22°08' E 113°47'0 0.1
2016-May-25 13:30N 22°07' E 113°47'0 0.1
2016-May-25 12:24N 22°07' E 113°47'0 0.1
2016-May-25 11:30N 22°07' E 113°47'0 0.0
2016-May-25 10:30N 22°07' E 113°47'0 0.0
2016-May-25 09:30N 22°07' E 113°47'0 0.1
2016-May-25 08:30N 22°07' E 113°47'0 0.0
2016-May-25 07:30N 22°07' E 113°47'0 0.0
2016-May-25 06:30N 22°07' E 113°47'0 0.1
2016-May-25 05:24N 22°07' E 113°47'0 0.2
2016-May-25 04:30N 22°08' E 113°47'0 0.0
2016-May-25 03:30N 22°08' E 113°47'  
2016-May-20 03:10N 01°14' E 104°02'813.5
2016-May-20 02:33N 01°12' E 103°54'1313.1
2016-May-20 01:33N 01°05' E 103°43'1110.8
2016-May-20 00:33N 01°06' E 103°33'8 7.8
2016-May-19 23:33N 01°12' E 103°38'1 0.8
2016-May-19 22:10N 01°13' E 103°38'0 0.0
2016-May-19 21:31N 01°13' E 103°38'0 0.0
2016-May-19 20:28N 01°13' E 103°38'0 0.0
2016-May-19 19:31N 01°13' E 103°38'0 0.0
2016-May-19 18:31N 01°13' E 103°38'0 0.1
2016-May-19 17:31N 01°13' E 103°38'0 0.1
2016-May-19 16:31N 01°13' E 103°38'0 0.1
2016-May-19 15:19N 01°13' E 103°38'0 0.1
2016-May-19 14:28N 01°13' E 103°38'0 0.0
2016-May-19 12:28N 01°13' E 103°38'0 0.0
2016-May-19 10:28N 01°13' E 103°38'0 0.1
2016-May-19 09:04N 01°13' E 103°38'0 0.1
2016-May-19 08:31N 01°13' E 103°38'2 2.4
2016-May-19 07:34N 01°13' E 103°36'7011.3
2016-May-19 01:20N 01°45' E 102°33'1114.4
2016-May-19 00:32N 01°50' E 102°23'4914.7
2016-May-18 21:12N 02°20' E 101°44'  
Track history (hours):
 
Tides and Currents Weather Stations Pressure Air Temp Water Temp Dewpoint Dewpoint Depression Visibility Wind Speed Wind Dir Waves Ship Positions

Wawasan Ruby

Last reported at 2016-May-26 03:12 UTC. Time now 2016-May-26 04:41 UTC.
Position N 22°08' E 113°47'.

Length 146 m; draft 9.7 m.

Type: Tanker. MMSI: 355619000.

Date/timePositionNaut miles runAvg speedWind from/ knotsBaromVisibWave heightAir tempDewpointWater temp
2016-May-26 03:12N 22°08' E 113°47'0 0.2
2016-May-26 02:30N 22°08' E 113°47'0 0.0
2016-May-26 01:24N 22°08' E 113°47'0 0.0
2016-May-26 00:30N 22°08' E 113°47'0 0.0
2016-May-25 23:24N 22°08' E 113°47'0 0.1
2016-May-25 22:30N 22°07' E 113°47'0 0.0
2016-May-25 21:30N 22°07' E 113°47'0 0.0
2016-May-25 20:30N 22°07' E 113°47'0 0.0
2016-May-25 19:30N 22°07' E 113°47'0 0.0
2016-May-25 18:18N 22°08' E 113°47'0 0.0
2016-May-25 17:30N 22°08' E 113°47'0 0.0
2016-May-25 16:30N 22°08' E 113°47'0 0.0
2016-May-25 15:30N 22°08' E 113°47'0 0.1
2016-May-25 14:30N 22°08' E 113°47'0 0.1
2016-May-25 13:30N 22°07' E 113°47'0 0.1
2016-May-25 12:24N 22°07' E 113°47'0 0.1
2016-May-25 11:30N 22°07' E 113°47'0 0.0
2016-May-25 10:30N 22°07' E 113°47'0 0.0
2016-May-25 09:30N 22°07' E 113°47'0 0.1
2016-May-25 08:30N 22°07' E 113°47'0 0.0
2016-May-25 07:30N 22°07' E 113°47'0 0.0
2016-May-25 06:30N 22°07' E 113°47'0 0.1
2016-May-25 05:24N 22°07' E 113°47'0 0.2
2016-May-25 04:30N 22°08' E 113°47'0 0.0
2016-May-25 03:30N 22°08' E 113°47'  
2016-May-20 03:10N 01°14' E 104°02'813.5
2016-May-20 02:33N 01°12' E 103°54'1313.1
2016-May-20 01:33N 01°05' E 103°43'1110.8
2016-May-20 00:33N 01°06' E 103°33'8 7.8
2016-May-19 23:33N 01°12' E 103°38'1 0.8
2016-May-19 22:10N 01°13' E 103°38'0 0.0
2016-May-19 21:31N 01°13' E 103°38'0 0.0
2016-May-19 20:28N 01°13' E 103°38'0 0.0
2016-May-19 19:31N 01°13' E 103°38'0 0.0
2016-May-19 18:31N 01°13' E 103°38'0 0.1
2016-May-19 17:31N 01°13' E 103°38'0 0.1
2016-May-19 16:31N 01°13' E 103°38'0 0.1
2016-May-19 15:19N 01°13' E 103°38'0 0.1
2016-May-19 14:28N 01°13' E 103°38'0 0.0
2016-May-19 12:28N 01°13' E 103°38'0 0.0
2016-May-19 10:28N 01°13' E 103°38'0 0.1
2016-May-19 09:04N 01°13' E 103°38'0 0.1
2016-May-19 08:31N 01°13' E 103°38'2 2.4
2016-May-19 07:34N 01°13' E 103°36'7011.3
2016-May-19 01:20N 01°45' E 102°33'1114.4
2016-May-19 00:32N 01°50' E 102°23'4914.7
2016-May-18 21:12N 02°20' E 101°44'  

Dump ship's entire track history